createdAt,value
2023-02-19T00:01:19.874Z,72.68
2023-02-19T00:03:52.618Z,73.50
2023-02-19T00:06:20.521Z,73.15
2023-02-19T00:08:47.272Z,72.65
2023-02-19T00:11:20.606Z,72.52
2023-02-19T00:13:50.204Z,73.39
2023-02-19T00:16:28.144Z,73.18
2023-02-19T00:18:56.294Z,73.10
2023-02-19T00:21:23.836Z,73.64
2023-02-19T00:23:53.097Z,73.52
2023-02-19T00:26:20.037Z,73.18
2023-02-19T00:28:50.873Z,73.44
2023-02-19T00:31:27.113Z,73.42
2023-02-19T00:33:57.397Z,73.71
2023-02-19T00:36:25.750Z,73.29
2023-02-19T00:38:52.491Z,72.58
2023-02-19T00:41:21.421Z,73.49
2023-02-19T00:43:59.567Z,73.54
2023-02-19T00:46:46.421Z,73.96
2023-02-19T00:49:20.082Z,73.39
2023-02-19T00:51:47.651Z,74.15
2023-02-19T00:54:14.884Z,73.84
2023-02-19T00:56:42.244Z,73.95
2023-02-19T00:59:09.116Z,73.18
2023-02-19T01:01:36.129Z,74.61
2023-02-19T01:04:04.289Z,73.80
2023-02-19T01:06:32.982Z,73.71
2023-02-19T01:08:59.628Z,74.64
2023-02-19T01:11:27.310Z,74.88
2023-02-19T01:13:58.497Z,75.61
2023-02-19T01:16:25.345Z,75.21
2023-02-19T01:18:52.295Z,74.85
2023-02-19T01:21:22.074Z,75.06
2023-02-19T01:23:50.247Z,75.24
2023-02-19T01:26:29.246Z,75.58
2023-02-19T01:28:55.922Z,74.95
2023-02-19T01:31:24.428Z,74.93
2023-02-19T01:33:53.572Z,75.30
2023-02-19T01:36:20.349Z,75.55
2023-02-19T01:38:47.679Z,76.42
2023-02-19T01:41:17.029Z,75.31
2023-02-19T01:44:03.587Z,75.67
2023-02-19T01:46:41.711Z,76.89
2023-02-19T01:49:21.029Z,76.63
2023-02-19T01:51:52.933Z,76.62
2023-02-19T01:54:22.671Z,75.58
2023-02-19T01:56:50.145Z,76.24
2023-02-19T01:59:18.370Z,76.52
2023-02-19T02:01:45.211Z,75.99
2023-02-19T02:04:14.402Z,76.17
2023-02-19T02:06:49.948Z,77.32
2023-02-19T02:09:38.258Z,76.72
2023-02-19T02:12:05.469Z,76.08
2023-02-19T02:14:36.023Z,76.48
2023-02-19T02:17:25.902Z,76.66
2023-02-19T02:20:07.970Z,76.11
2023-02-19T02:22:37.661Z,76.09
2023-02-19T02:25:25.928Z,75.77
2023-02-19T02:28:09.524Z,76.43
2023-02-19T02:30:50.660Z,75.18
2023-02-19T02:33:39.809Z,74.77
2023-02-19T02:36:13.041Z,74.27
2023-02-19T02:38:44.020Z,74.81
2023-02-19T02:41:13.393Z,75.20
2023-02-19T02:43:40.202Z,75.17
2023-02-19T02:46:10.451Z,75.37
2023-02-19T02:48:55.517Z,75.49
2023-02-19T02:51:27.645Z,75.12
2023-02-19T02:54:25.851Z,75.27
2023-02-19T02:56:56.078Z,75.75
2023-02-19T02:59:30.439Z,75.10
2023-02-19T03:02:19.989Z,75.50
2023-02-19T03:05:15.645Z,75.57
2023-02-19T03:07:53.387Z,75.73
2023-02-19T03:10:28.477Z,75.14
2023-02-19T03:13:15.927Z,75.76
2023-02-19T03:16:20.203Z,75.96
2023-02-19T03:19:12.172Z,75.89
2023-02-19T03:21:42.319Z,75.86
2023-02-19T03:24:31.342Z,75.99
2023-02-19T03:27:04.341Z,75.67
2023-02-19T03:29:39.881Z,75.39
2023-02-19T03:32:18.283Z,75.16
2023-02-19T03:34:51.636Z,75.64
2023-02-19T03:37:25.258Z,75.73
2023-02-19T03:39:54.624Z,75.58
2023-02-19T03:42:55.815Z,75.34
2023-02-19T03:45:41.632Z,75.58
2023-02-19T03:48:32.314Z,75.73
2023-02-19T03:51:08.697Z,75.84
2023-02-19T03:53:47.743Z,75.76
2023-02-19T03:56:22.195Z,75.30
2023-02-19T03:59:16.839Z,75.28
2023-02-19T04:01:59.797Z,75.13
2023-02-19T04:04:53.479Z,74.95
2023-02-19T04:07:22.554Z,74.75
2023-02-19T04:09:51.977Z,75.22
2023-02-19T04:12:22.617Z,74.57
2023-02-19T04:14:54.830Z,75.03
2023-02-19T04:17:29.648Z,75.01
2023-02-19T04:19:59.505Z,74.95
2023-02-19T04:22:26.611Z,75.33
2023-02-19T04:24:55.519Z,75.69
2023-02-19T04:27:22.279Z,75.20
2023-02-19T04:29:48.966Z,75.80
2023-02-19T04:32:15.609Z,75.08
2023-02-19T04:34:42.334Z,74.97
2023-02-19T04:37:09.026Z,75.40
2023-02-19T04:39:35.665Z,75.05
2023-02-19T04:42:02.247Z,74.48
2023-02-19T04:44:28.949Z,75.35
2023-02-19T04:46:55.851Z,75.33
2023-02-19T04:49:22.556Z,75.00
2023-02-19T04:51:49.172Z,75.45
2023-02-19T04:54:15.929Z,74.73
2023-02-19T04:56:42.562Z,75.74
2023-02-19T04:59:09.913Z,75.05
2023-02-19T05:01:36.507Z,74.94
2023-02-19T05:04:04.866Z,75.60
2023-02-19T05:06:31.581Z,76.21
2023-02-19T05:08:58.409Z,75.31
2023-02-19T05:11:25.199Z,75.76
2023-02-19T05:13:51.927Z,75.73
2023-02-19T05:16:18.770Z,76.63
2023-02-19T05:18:46.645Z,76.59
2023-02-19T05:21:13.737Z,75.91
2023-02-19T05:23:40.887Z,75.94
2023-02-19T05:26:17.745Z,76.23
2023-02-19T05:28:45.772Z,76.74
2023-02-19T05:31:13.689Z,77.35
2023-02-19T05:33:42.925Z,77.01
2023-02-19T05:36:12.496Z,76.31
2023-02-19T05:38:40.107Z,76.63
2023-02-19T05:41:08.782Z,77.62
2023-02-19T05:43:35.603Z,76.99
2023-02-19T05:46:02.286Z,77.13
2023-02-19T05:48:29.045Z,77.88
2023-02-19T05:51:02.271Z,76.96
2023-02-19T05:53:28.932Z,77.86
2023-02-19T05:55:55.632Z,77.72
2023-02-19T05:58:22.307Z,77.22
2023-02-19T06:00:49.105Z,76.83
2023-02-19T06:03:15.873Z,77.98
2023-02-19T06:05:42.626Z,77.78
2023-02-19T06:08:12.565Z,77.75
2023-02-19T06:10:41.274Z,78.18
2023-02-19T06:13:09.360Z,78.81
2023-02-19T06:15:37.448Z,78.84
2023-02-19T06:18:04.371Z,78.48
2023-02-19T06:20:31.035Z,78.43
2023-02-19T06:22:57.861Z,78.35
2023-02-19T06:25:24.412Z,78.50
2023-02-19T06:27:51.005Z,78.43
2023-02-19T06:30:17.962Z,77.84
2023-02-19T06:32:44.638Z,77.81
2023-02-19T06:35:11.255Z,77.83
2023-02-19T06:37:37.831Z,77.19
2023-02-19T06:40:04.919Z,77.41
2023-02-19T06:42:33.020Z,77.26
2023-02-19T06:44:59.532Z,76.33
2023-02-19T06:47:26.216Z,77.14
2023-02-19T06:49:52.891Z,76.18
2023-02-19T06:52:19.511Z,76.75
2023-02-19T06:54:46.078Z,76.58
2023-02-19T06:57:12.818Z,76.73
2023-02-19T06:59:39.451Z,76.35
2023-02-19T07:02:06.232Z,75.86
2023-02-19T07:04:32.939Z,75.92
2023-02-19T07:07:00.326Z,75.43
2023-02-19T07:09:28.479Z,76.17
2023-02-19T07:11:55.165Z,74.76
2023-02-19T07:14:22.253Z,74.12
2023-02-19T07:16:49.195Z,72.41
2023-02-19T07:19:16.077Z,71.42
2023-02-19T07:21:43.206Z,70.16
2023-02-19T07:24:10.309Z,69.43
2023-02-19T07:26:36.984Z,67.80
2023-02-19T07:29:04.359Z,65.18
2023-02-19T07:31:31.055Z,64.34
2023-02-19T07:33:57.712Z,63.52
2023-02-19T07:36:24.838Z,63.79
2023-02-19T07:38:56.231Z,62.81
2023-02-19T07:41:23.746Z,62.60
2023-02-19T07:43:50.631Z,62.92
2023-02-19T07:46:17.203Z,62.84
2023-02-19T07:48:44.522Z,62.38
2023-02-19T07:51:16.457Z,63.67
2023-02-19T07:53:43.127Z,64.58
2023-02-19T07:56:11.316Z,65.02
2023-02-19T07:58:38.333Z,64.34
2023-02-19T08:01:09.191Z,64.26
2023-02-19T08:03:37.264Z,64.41
2023-02-19T08:06:04.680Z,64.10
2023-02-19T08:08:31.266Z,64.25
2023-02-19T08:11:21.105Z,63.69
2023-02-19T08:13:52.833Z,64.28
2023-02-19T08:16:29.716Z,64.21
2023-02-19T08:19:00.314Z,64.10
2023-02-19T08:21:26.935Z,63.34
2023-02-19T08:23:53.634Z,63.60
2023-02-19T08:26:20.311Z,64.68
2023-02-19T08:28:48.868Z,64.54
2023-02-19T08:31:15.755Z,63.98
2023-02-19T08:33:42.605Z,63.94
2023-02-19T08:36:10.684Z,63.35
2023-02-19T08:38:37.738Z,63.25
2023-02-19T08:41:09.683Z,63.87
2023-02-19T08:43:37.089Z,63.33
2023-02-19T08:46:04.445Z,62.86
2023-02-19T08:48:31.224Z,62.03
2023-02-19T08:51:02.078Z,62.10
2023-02-19T08:53:28.833Z,61.32
2023-02-19T08:55:55.490Z,61.40
2023-02-19T08:58:22.726Z,61.73
2023-02-19T09:00:49.285Z,61.95
2023-02-19T09:03:16.112Z,62.27
2023-02-19T09:05:42.644Z,61.17
2023-02-19T09:08:09.413Z,59.81
2023-02-19T09:10:35.935Z,59.66
2023-02-19T09:13:02.840Z,60.30
2023-02-19T09:15:29.803Z,60.76
2023-02-19T09:17:56.932Z,60.94
2023-02-19T09:20:23.753Z,59.28
2023-02-19T09:22:50.796Z,60.52
2023-02-19T09:25:17.513Z,59.91
2023-02-19T09:27:50.226Z,59.54
2023-02-19T09:30:17.070Z,62.48
2023-02-19T09:32:43.777Z,60.92
2023-02-19T09:35:10.456Z,60.25
2023-02-19T09:37:37.046Z,60.75
2023-02-19T09:40:03.886Z,60.49
2023-02-19T09:42:32.773Z,60.05
2023-02-19T09:45:01.741Z,60.36
2023-02-19T09:47:31.520Z,60.37
2023-02-19T09:50:07.520Z,62.08
2023-02-19T09:52:45.249Z,62.14
2023-02-19T09:55:30.206Z,61.32
2023-02-19T09:58:00.014Z,61.20
2023-02-19T10:00:30.389Z,60.12
2023-02-19T10:03:08.569Z,59.10
2023-02-19T10:05:35.689Z,59.52
2023-02-19T10:08:07.224Z,58.64
2023-02-19T10:10:36.521Z,58.86
2023-02-19T10:13:28.588Z,57.87
2023-02-19T10:15:57.231Z,56.44
2023-02-19T10:18:28.324Z,55.71
2023-02-19T10:20:56.654Z,56.74
2023-02-19T10:23:24.757Z,56.30
2023-02-19T10:25:57.208Z,55.32
2023-02-19T10:28:28.702Z,54.21
2023-02-19T10:31:00.808Z,54.29
2023-02-19T10:33:28.252Z,53.80
2023-02-19T10:35:59.198Z,54.34
2023-02-19T10:38:35.549Z,53.85
2023-02-19T10:41:07.964Z,53.15
2023-02-19T10:43:43.916Z,52.27
2023-02-19T10:46:21.366Z,51.68
2023-02-19T10:48:58.415Z,51.29
2023-02-19T10:51:52.381Z,49.73
2023-02-19T10:54:29.740Z,50.93
2023-02-19T10:57:15.566Z,49.41
2023-02-19T10:59:52.516Z,47.35
2023-02-19T11:02:21.481Z,45.94
2023-02-19T11:05:09.817Z,45.36
2023-02-19T11:07:37.774Z,44.66
2023-02-19T11:10:07.140Z,41.81
2023-02-19T11:12:35.125Z,41.25
2023-02-19T11:15:19.974Z,40.01
2023-02-19T11:18:04.990Z,40.61
2023-02-19T11:20:32.389Z,41.98
2023-02-19T11:23:06.528Z,41.37
2023-02-19T11:25:33.758Z,41.27
2023-02-19T11:28:07.468Z,39.14
2023-02-19T11:30:38.953Z,38.84
2023-02-19T11:33:19.759Z,38.03
2023-02-19T11:35:48.235Z,39.15
2023-02-19T11:38:17.208Z,37.18
2023-02-19T11:41:14.629Z,36.30
2023-02-19T11:44:12.757Z,35.69
2023-02-19T11:46:53.941Z,36.97
2023-02-19T11:49:54.466Z,35.39
2023-02-19T11:52:27.066Z,33.65
2023-02-19T11:55:10.696Z,33.65
2023-02-19T11:57:47.901Z,32.87
2023-02-19T12:00:22.493Z,32.98
2023-02-19T12:03:17.140Z,35.04
2023-02-19T12:06:02.289Z,35.21
2023-02-19T12:09:06.382Z,37.83
2023-02-19T12:11:41.031Z,38.56
2023-02-19T12:14:45.338Z,37.20
2023-02-19T12:17:24.546Z,36.43
2023-02-19T12:20:08.126Z,35.83
2023-02-19T12:23:01.671Z,35.02
2023-02-19T12:25:28.440Z,33.75
2023-02-19T12:28:21.374Z,32.86
2023-02-19T12:31:12.701Z,32.42
2023-02-19T12:33:42.260Z,32.62
2023-02-19T12:36:24.259Z,33.49
2023-02-19T12:39:18.920Z,32.05
2023-02-19T12:42:03.305Z,30.06
2023-02-19T12:44:42.904Z,28.99
2023-02-19T12:47:19.369Z,28.93
2023-02-19T12:50:09.760Z,28.05
2023-02-19T12:52:41.448Z,26.10
2023-02-19T12:55:22.656Z,26.60
2023-02-19T12:57:51.291Z,26.42
2023-02-19T13:00:37.199Z,26.09
2023-02-19T13:03:20.894Z,25.84
2023-02-19T13:06:32.585Z,25.02
2023-02-19T13:09:21.075Z,24.60
2023-02-19T13:11:56.288Z,24.25
2023-02-19T13:14:41.697Z,24.38
2023-02-19T13:17:20.287Z,24.50
2023-02-19T13:19:50.549Z,24.07
2023-02-19T13:22:59.689Z,23.75
2023-02-19T13:25:44.194Z,23.42
2023-02-19T13:28:18.694Z,21.20
2023-02-19T13:31:24.994Z,22.31
2023-02-19T13:34:00.692Z,21.83
2023-02-19T13:36:29.733Z,21.42
2023-02-19T13:38:57.665Z,21.32
2023-02-19T13:41:35.309Z,21.12
2023-02-19T13:44:04.983Z,20.85
2023-02-19T13:46:41.550Z,20.98
2023-02-19T13:49:31.539Z,20.86
2023-02-19T13:52:01.154Z,20.39
2023-02-19T13:54:33.531Z,20.01
2023-02-19T13:57:24.896Z,19.77
2023-02-19T13:59:53.086Z,19.77
2023-02-19T14:02:34.015Z,19.00
2023-02-19T14:05:10.266Z,19.30
2023-02-19T14:07:49.178Z,19.63
2023-02-19T14:10:50.945Z,19.87
2023-02-19T14:13:56.374Z,19.43
2023-02-19T14:16:49.493Z,20.36
2023-02-19T14:19:41.921Z,19.80
2023-02-19T14:22:57.992Z,20.32
2023-02-19T14:25:30.271Z,20.48
2023-02-19T14:28:06.036Z,20.82
2023-02-19T14:30:34.492Z,20.64
2023-02-19T14:33:10.523Z,21.22
2023-02-19T14:35:44.365Z,20.77
2023-02-19T14:38:20.216Z,20.21
2023-02-19T14:40:48.781Z,21.06
2023-02-19T14:43:19.499Z,21.27
2023-02-19T14:45:52.542Z,20.56
2023-02-19T14:48:28.497Z,20.83
2023-02-19T14:51:04.245Z,21.16
2023-02-19T14:53:36.246Z,21.08
2023-02-19T14:56:04.206Z,21.97
2023-02-19T14:58:33.753Z,21.91
2023-02-19T15:01:00.411Z,22.29
2023-02-19T15:03:33.915Z,22.01
2023-02-19T15:06:12.832Z,22.50
2023-02-19T15:08:46.760Z,22.41
2023-02-19T15:11:19.688Z,22.83
2023-02-19T15:13:57.292Z,22.45
2023-02-19T15:16:26.353Z,22.36
2023-02-19T15:18:55.211Z,22.05
2023-02-19T15:21:25.970Z,22.08
2023-02-19T15:24:01.962Z,21.77
2023-02-19T15:26:35.682Z,22.83
2023-02-19T15:29:11.455Z,22.70
2023-02-19T15:31:46.398Z,22.79
2023-02-19T15:34:22.369Z,23.46
2023-02-19T15:36:51.625Z,23.63
2023-02-19T15:39:24.174Z,22.89
2023-02-19T15:41:53.620Z,23.39
2023-02-19T15:44:49.282Z,23.51
2023-02-19T15:47:35.038Z,23.81
2023-02-19T15:50:09.345Z,24.38
2023-02-19T15:52:50.173Z,24.32
2023-02-19T15:55:25.941Z,25.09
2023-02-19T15:58:00.427Z,25.16
2023-02-19T16:00:36.587Z,26.08
2023-02-19T16:03:05.530Z,26.07
2023-02-19T16:05:39.148Z,26.94
2023-02-19T16:08:11.612Z,26.95
2023-02-19T16:10:38.639Z,27.21
2023-02-19T16:13:08.212Z,27.61
2023-02-19T16:15:35.854Z,27.38
2023-02-19T16:18:02.653Z,27.36
2023-02-19T16:20:32.188Z,28.10
2023-02-19T16:23:05.634Z,28.58
2023-02-19T16:25:42.659Z,29.35
2023-02-19T16:28:27.281Z,29.45
2023-02-19T16:31:21.561Z,30.02
2023-02-19T16:33:49.998Z,30.65
2023-02-19T16:36:41.454Z,31.60
2023-02-19T16:39:08.111Z,32.39
2023-02-19T16:41:40.544Z,32.72
2023-02-19T16:44:25.404Z,33.68
2023-02-19T16:46:54.931Z,34.78
2023-02-19T16:49:23.519Z,36.10
2023-02-19T16:51:50.990Z,37.10
2023-02-19T16:54:17.555Z,38.58
2023-02-19T16:56:44.230Z,39.81
2023-02-19T16:59:10.755Z,41.27
2023-02-19T17:01:38.202Z,43.14
2023-02-19T17:04:08.160Z,44.24
2023-02-19T17:06:37.785Z,44.31
2023-02-19T17:09:06.519Z,44.36
2023-02-19T17:11:33.262Z,44.98
2023-02-19T17:14:00.303Z,44.94
2023-02-19T17:16:29.194Z,45.56
2023-02-19T17:18:55.875Z,45.83
2023-02-19T17:21:31.846Z,46.05
2023-02-19T17:23:58.515Z,46.35
2023-02-19T17:26:27.967Z,46.42
2023-02-19T17:28:59.106Z,47.34
2023-02-19T17:31:26.025Z,47.44
2023-02-19T17:33:53.270Z,47.94
2023-02-19T17:36:26.918Z,47.72
2023-02-19T17:38:54.928Z,48.38
2023-02-19T17:41:21.631Z,48.59
2023-02-19T17:43:50.372Z,48.52
2023-02-19T17:46:23.648Z,48.59
2023-02-19T17:48:50.975Z,49.29
2023-02-19T17:51:17.668Z,50.26
2023-02-19T17:53:46.448Z,50.14
2023-02-19T17:56:23.042Z,50.07
2023-02-19T17:58:49.984Z,50.71
2023-02-19T18:01:16.780Z,50.55
2023-02-19T18:03:43.881Z,50.76
2023-02-19T18:06:11.244Z,50.35
2023-02-19T18:08:38.059Z,50.25
2023-02-19T18:11:06.740Z,51.12
2023-02-19T18:13:33.513Z,51.52
2023-02-19T18:16:00.055Z,51.66
2023-02-19T18:18:26.658Z,51.80
2023-02-19T18:20:53.339Z,52.18
2023-02-19T18:23:20.686Z,52.02
2023-02-19T18:25:47.529Z,52.28
2023-02-19T18:28:15.035Z,52.95
2023-02-19T18:30:42.092Z,53.31
2023-02-19T18:33:11.014Z,53.43
2023-02-19T18:35:38.462Z,53.54
2023-02-19T18:38:05.627Z,53.64
2023-02-19T18:40:32.219Z,54.07
2023-02-19T18:42:59.031Z,54.63
2023-02-19T18:45:25.919Z,54.85
2023-02-19T18:47:52.644Z,55.13
2023-02-19T18:50:19.918Z,55.06
2023-02-19T18:52:47.112Z,55.48
2023-02-19T18:55:13.941Z,56.28
2023-02-19T18:57:40.774Z,56.49
2023-02-19T19:00:08.240Z,56.66
2023-02-19T19:02:47.362Z,56.69
2023-02-19T19:05:23.630Z,56.88
2023-02-19T19:07:55.257Z,57.11
2023-02-19T19:10:22.962Z,57.47
2023-02-19T19:12:50.197Z,57.35
2023-02-19T19:15:18.434Z,57.79
2023-02-19T19:17:46.388Z,58.06
2023-02-19T19:20:13.138Z,58.35
2023-02-19T19:22:40.148Z,58.07
2023-02-19T19:25:07.393Z,58.82
2023-02-19T19:27:33.985Z,59.22
2023-02-19T19:30:00.713Z,59.88
2023-02-19T19:32:27.435Z,60.32
2023-02-19T19:34:54.100Z,60.45
2023-02-19T19:37:20.773Z,61.06
2023-02-19T19:39:47.548Z,61.85
2023-02-19T19:42:14.318Z,61.53
2023-02-19T19:44:41.054Z,62.79
2023-02-19T19:47:07.574Z,62.04
2023-02-19T19:49:34.246Z,62.59
2023-02-19T19:52:01.322Z,62.13
2023-02-19T19:54:28.835Z,62.50
2023-02-19T19:56:55.677Z,62.36
2023-02-19T19:59:23.102Z,62.24
2023-02-19T20:01:54.543Z,62.28
2023-02-19T20:04:22.582Z,62.52
2023-02-19T20:06:49.669Z,62.91
2023-02-19T20:09:17.971Z,63.24
2023-02-19T20:11:50.080Z,63.33
2023-02-19T20:14:18.354Z,63.62
2023-02-19T20:16:47.372Z,63.63
2023-02-19T20:19:18.328Z,63.62
2023-02-19T20:21:47.246Z,63.92
2023-02-19T20:24:24.349Z,63.92
2023-02-19T20:26:53.859Z,63.31
2023-02-19T20:29:20.561Z,62.66
2023-02-19T20:31:49.489Z,63.48
2023-02-19T20:34:17.018Z,63.02
2023-02-19T20:36:44.666Z,63.02
2023-02-19T20:39:11.861Z,62.75
2023-02-19T20:41:38.609Z,63.21
2023-02-19T20:44:05.936Z,63.86
2023-02-19T20:46:32.648Z,63.85
2023-02-19T20:48:59.359Z,64.27
2023-02-19T20:51:26.006Z,63.71
2023-02-19T20:53:52.748Z,63.92
2023-02-19T20:56:19.392Z,64.02
2023-02-19T20:58:46.225Z,63.46
2023-02-19T21:01:13.012Z,64.25
2023-02-19T21:03:40.883Z,63.68
2023-02-19T21:06:07.627Z,63.59
2023-02-19T21:08:34.341Z,63.33
2023-02-19T21:11:00.976Z,63.77
2023-02-19T21:13:29.926Z,63.31
2023-02-19T21:15:56.860Z,63.32
2023-02-19T21:18:23.589Z,64.11
2023-02-19T21:20:50.210Z,64.04
2023-02-19T21:23:16.965Z,64.37
2023-02-19T21:25:43.532Z,64.33
2023-02-19T21:28:10.762Z,64.26
2023-02-19T21:30:37.423Z,64.15
2023-02-19T21:33:04.680Z,64.32
2023-02-19T21:35:31.317Z,65.09
2023-02-19T21:37:58.071Z,65.54
2023-02-19T21:40:25.669Z,66.21
2023-02-19T21:42:52.334Z,65.50
2023-02-19T21:45:18.920Z,66.29
2023-02-19T21:47:46.231Z,66.44
2023-02-19T21:50:12.973Z,66.35
2023-02-19T21:52:39.572Z,65.98
2023-02-19T21:55:06.480Z,66.96
2023-02-19T21:57:33.275Z,67.17
2023-02-19T21:59:59.853Z,67.47
2023-02-19T22:02:26.528Z,67.68
2023-02-19T22:04:53.820Z,68.44
2023-02-19T22:07:21.769Z,68.03
2023-02-19T22:09:48.779Z,68.12
2023-02-19T22:12:15.860Z,68.43
2023-02-19T22:14:42.735Z,68.86
2023-02-19T22:17:09.427Z,69.34
2023-02-19T22:19:36.091Z,69.43
2023-02-19T22:22:02.728Z,69.93
2023-02-19T22:24:29.282Z,70.17
2023-02-19T22:26:57.417Z,69.71
2023-02-19T22:29:24.748Z,70.05
2023-02-19T22:31:51.648Z,70.54
2023-02-19T22:34:18.531Z,70.45
2023-02-19T22:36:45.626Z,70.18
2023-02-19T22:39:18.831Z,69.86
2023-02-19T22:41:45.490Z,69.70
2023-02-19T22:44:12.442Z,70.51
2023-02-19T22:46:39.010Z,70.80
2023-02-19T22:49:06.728Z,70.78
2023-02-19T22:51:35.482Z,71.48
2023-02-19T22:54:02.253Z,71.90
2023-02-19T22:56:29.313Z,72.67
2023-02-19T22:58:57.286Z,73.01
2023-02-19T23:01:24.646Z,73.20
2023-02-19T23:04:00.162Z,71.39
2023-02-19T23:06:32.138Z,71.81
2023-02-19T23:09:03.324Z,72.67
2023-02-19T23:11:33.163Z,72.24
2023-02-19T23:14:00.162Z,72.33
2023-02-19T23:16:27.818Z,72.39
2023-02-19T23:18:54.848Z,74.24
2023-02-19T23:21:22.656Z,73.10
2023-02-19T23:23:49.666Z,75.52
2023-02-19T23:26:16.778Z,76.17
2023-02-19T23:28:44.539Z,75.45
2023-02-19T23:31:11.972Z,74.18
2023-02-19T23:33:38.817Z,73.23
2023-02-19T23:36:06.335Z,75.16
2023-02-19T23:38:33.394Z,75.60
2023-02-19T23:41:00.296Z,74.96
2023-02-19T23:43:27.074Z,74.55
2023-02-19T23:45:53.655Z,73.35
2023-02-19T23:48:20.356Z,73.38
2023-02-19T23:50:47.105Z,73.34
2023-02-19T23:53:13.751Z,73.73
2023-02-19T23:55:40.352Z,73.30
2023-02-19T23:58:06.940Z,73.63
